WetterOnline ( http://www.wetteronline.de )

Wetter aktuell Warburg

Aktuelles Wetter: Warburg (237m)

6-stündlich | Neueste Meldungen
Ortszeit Temperatur Wetter
Di, 22.05. 20:00 14.9° C leichter Regen
Di, 22.05. 14:00 23.6° C leicht bewölkt
Di, 22.05. 8:00 12.5° C wolkig
Di, 22.05. 2:00 11.8° C wolkenlos
Mo, 21.05. 20:00 20.3° C wolkig
Mo, 21.05. 14:00 21.8° C wolkenlos
Mo, 21.05. 8:00 13.1° C wolkenlos
Mo, 21.05. 2:00 11.7° C wolkenlos
Ortszeit Temperatur Wetter
Mi, 23.05. 1:00 13.6° C bedeckt
Mi, 23.05. 0:50 13.6° C bedeckt
Mi, 23.05. 0:40 13.8° C bedeckt
Mi, 23.05. 0:30 13.7° C bedeckt
Mi, 23.05. 0:20 13.7° C bedeckt
Mi, 23.05. 0:10 13.7° C bewölkt
Mi, 23.05. 0:00 13.7° C bewölkt
Di, 22.05. 23:30 13.7° C bewölkt
Di, 22.05. 23:00 13.7° C bewölkt
Di, 22.05. 22:30 13.8° C bedeckt
Di, 22.05. 22:00 14.0° C bewölkt
Ortszeit Relative Feuchte Sichtweite
Di, 22.05. 20:00 92% 30 km
Di, 22.05. 14:00 45% 30 km
Di, 22.05. 8:00 78% 18 km
Di, 22.05. 2:00 69% 50 km
Mo, 21.05. 20:00 44% 40 km
Mo, 21.05. 14:00 45% 15 km
Mo, 21.05. 8:00 76% 21 km
Mo, 21.05. 2:00 62% 70 km
Ortszeit Relative Feuchte Sichtweite
Mi, 23.05. 1:00 100% 2.3 km
Mi, 23.05. 0:50 100% -
Mi, 23.05. 0:40 100% -
Mi, 23.05. 0:30 100% 3.5 km
Mi, 23.05. 0:20 100% -
Mi, 23.05. 0:10 100% -
Mi, 23.05. 0:00 100% 2.5 km
Di, 22.05. 23:30 99% 5.0 km
Di, 22.05. 23:00 99% 5.0 km
Di, 22.05. 22:30 100% 8 km
Di, 22.05. 22:00 100% 5.0 km
Ortszeit Niederschlagsmenge Niederschlagsart
Di, 22.05. 20:00 7 l/m2 in 12 Std. Regen
Di, 22.05. 14:00 0.0 l/m2 in 6 Std. -
Di, 22.05. 8:00 0.0 l/m2 in 12 Std. -
Di, 22.05. 2:00 0.0 l/m2 in 6 Std. -
Mo, 21.05. 20:00 0.0 l/m2 in 12 Std. -
Mo, 21.05. 14:00 0.0 l/m2 in 6 Std. -
Mo, 21.05. 8:00 0.0 l/m2 in 12 Std. -
Mo, 21.05. 2:00 0.0 l/m2 in 6 Std. -
Ortszeit Niederschlagsmenge Niederschlagsart
Mi, 23.05. 1:00 0.0 l/m2 in 1 Std. -
Mi, 23.05. 0:50 keine Meldung -
Mi, 23.05. 0:40 keine Meldung -
Mi, 23.05. 0:30 0.0 l/m2 in 1 Std. -
Mi, 23.05. 0:20 keine Meldung -
Mi, 23.05. 0:10 keine Meldung -
Mi, 23.05. 0:00 0.0 l/m2 in 1 Std. -
Di, 22.05. 23:30 0.0 l/m2 in 1 Std. -
Di, 22.05. 23:00 0.0 l/m2 in 1 Std. Regen
Di, 22.05. 22:30 0.0 l/m2 in 1 Std. -
Di, 22.05. 22:00 0.1 l/m2 in 1 Std. Regen
Ortszeit Stärke Spitze Richtung
km/h Bft. km/h Grad Sektor
Di, 22.05. 20:00 0 0 29 - -
Di, 22.05. 14:00 11 2 29 110° O
Di, 22.05. 8:00 9 2 13 300° NW
Di, 22.05. 2:00 6 1 24 360° N
Mo, 21.05. 20:00 18 3 40 90° O
Mo, 21.05. 14:00 22 4 43 80° O
Mo, 21.05. 8:00 7 2 18 40° NO
Mo, 21.05. 2:00 9 2 24 80° O
Ortszeit Stärke Spitze Richtung
km/h Bft. km/h Grad Sektor
Mi, 23.05. 1:00 4 1 11 240° SW
Mi, 23.05. 0:50 4 1 - 240° SW
Mi, 23.05. 0:40 4 1 - 260° W
Mi, 23.05. 0:30 7 2 11 290° W
Mi, 23.05. 0:20 7 2 - 290° W
Mi, 23.05. 0:10 7 2 - 310° NW
Mi, 23.05. 0:00 6 1 9 260° W
Di, 22.05. 23:30 7 2 7 280° W
Di, 22.05. 23:00 4 1 7 210° SW
Di, 22.05. 22:30 4 1 7 100° O
Di, 22.05. 22:00 6 1 15 170° S
Ortszeit Untergrenze Bedeckung Gattung
total tief tief mittel hoch
Di, 22.05. 20:00 2400 m 8/8 8/8 - - -
Di, 22.05. 14:00 7500 m 8/8 0/8 - - -
Di, 22.05. 8:00 8100 m 8/8 0/8 - - -
Di, 22.05. 2:00 - 0/8 0/8 - - -
Mo, 21.05. 20:00 6000 m 7/8 3/8 - - -
Mo, 21.05. 14:00 - 0/8 0/8 - - -
Mo, 21.05. 8:00 - 0/8 0/8 - - -
Mo, 21.05. 2:00 - 0/8 0/8 - - -
Ortszeit Bedeckungsgrad in Achtel und Wolkenuntergrenze
Mi, 23.05. 1:00 8(2100m)
Mi, 23.05. 0:50 8(2100m)
Mi, 23.05. 0:40 7(2100m) 8(2400m)
Mi, 23.05. 0:30 7(2100m) 8(2400m)
Mi, 23.05. 0:20 7(2100m) 8(2400m)
Mi, 23.05. 0:10 7(2100m) 7(2400m) 8(3000m)
Mi, 23.05. 0:00 5(2400m) 8(3000m)
Di, 22.05. 23:30 4(2100m) 8(3000m)
Di, 22.05. 23:00 7(2400m) 8(3000m)
Di, 22.05. 22:30 3(2100m) 8(2400m) 8(3600m)
Di, 22.05. 22:00 7(2400m) 8(3600m) 8(4200m)
Ortszeit Luftdruck NN (hPa) Tendenz (hPa in 3 Std.)
Di, 22.05. 20:00 1015 + 1,0
Di, 22.05. 14:00 1012 - 0,6
Di, 22.05. 8:00 1014 + 0,6
Di, 22.05. 2:00 1014 - 1,0
Mo, 21.05. 20:00 1014 - 1,1
Mo, 21.05. 14:00 1016 - 2,1
Mo, 21.05. 8:00 1020 - 0,3
Mo, 21.05. 2:00 1021 - 0,5
Ortszeit Luftdruck NN (hPa) Tendenz (hPa in 3 Std.)
Mi, 23.05. 1:00 1016 + 0,9
Mi, 23.05. 0:50 1016 keine Meldung
Mi, 23.05. 0:40 1016 keine Meldung
Mi, 23.05. 0:30 1016 + 1,4
Mi, 23.05. 0:20 1016 keine Meldung
Mi, 23.05. 0:10 1016 keine Meldung
Mi, 23.05. 0:00 1016 + 1,2
Di, 22.05. 23:30 1016 + 1,1
Di, 22.05. 23:00 1016 + 1,2
Di, 22.05. 22:30 1016 + 1,0
Di, 22.05. 22:00 1015 + 0,9
Ortszeit Schneehöhe (cm)
Di, 22.05. 20:00 -
Di, 22.05. 14:00 -
Di, 22.05. 8:00 -
Di, 22.05. 2:00 -
Mo, 21.05. 20:00 -
Mo, 21.05. 14:00 -
Mo, 21.05. 8:00 -
Mo, 21.05. 2:00 -
Ortszeit Schneehöhe (cm)
Mi, 23.05. 1:00 -
Mi, 23.05. 0:50 -
Mi, 23.05. 0:40 -
Mi, 23.05. 0:30 -
Mi, 23.05. 0:20 -
Mi, 23.05. 0:10 -
Mi, 23.05. 0:00 -
Di, 22.05. 23:30 -
Di, 22.05. 23:00 -
Di, 22.05. 22:30 -
Di, 22.05. 22:00 -
Link zu dieser Seite / Seite empfehlen

Das Wetter in ...